Stanton, New Jersey
Current Conditions -  °F | °C
As of 11:13 AM on Monday 24 Nov 2014 (Local Time) from KSMQ Reporting Station
Overcast Overcast  
Wind Chill: 72°   Ceiling: 3400
Heat Index: 72°   Visibility: 10mi
Dew Point: 59°   Wind: 9mph
Humidity: 64%   Direction: 210°SSW
Pressure: 29.62"   Gusts: 25mph
Location:  40.57°N, 74.84°W
Report Text: KSMQ 241613Z AUTO 21008G22KT 180V240 10SM OVC034 22/15 A2962 RMK AO2 T02220150
Loading
Personal Weather Stations






























Interactive Weather Map New forecast layout! Learn more

10-Day Weather Forecast

Advertisements
Track Severe Weather on mobile